^^
Station Historical Data
 
Daily Summary for October 16, 2013 Units:  English    Metric   Both
« Previous Day
Next Day »
Daily Weekly Monthly Yearly Custom
  Current: High: Low: Average:
Temperature: 47.4 °F 49.9 °F 47.4 °F 48.6 °F
Dew Point: 42.5 °F 47.8 °F 42.2 °F 46 °F
Humidity: 83% 97% 82% 91%
Wind Speed: 0.5mph 4.4mph 0.0mph 1.4mph
Wind Gust: 3.5mph 12.0mph - -
WindNW - - West
Pressure: 29.93 in 29.93 in 29.76 in -
Precipitation: 0.00 in      
Historical Graphs
 
 
Tabular Data for October 16, 2013
Time Temperature Dew Point Pressure Wind Wind Speed Wind Gust Humidity Rainfall Rate (Hourly)
00:02 47.7 °F 45.2 °F 29.76 in Calm     91% 0.00 in
00:07 47.6 °F 45.1 °F 29.76 in Calm     91% 0.00 in
00:12 47.6 °F 45.4 °F 29.76 in Calm     92% 0.00 in
00:17 47.6 °F 45.4 °F 29.76 in Calm   1.2 mph 92% 0.00 in
00:22 47.6 °F 45.4 °F 29.76 in Calm     92% 0.00 in
00:27 47.6 °F 45.7 °F 29.76 in Calm     93% 0.00 in
00:32 47.6 °F 45.7 °F 29.76 in South 1.8 mph   93% 0.00 in
00:37 47.6 °F 45.7 °F 29.76 in Calm   1.2 mph 93% 0.00 in
00:42 47.6 °F 45.7 °F 29.76 in Calm     93% 0.00 in
00:47 47.6 °F 45.7 °F 29.76 in Calm     93% 0.00 in
00:52 47.6 °F 45.7 °F 29.76 in Calm     93% 0.00 in
00:57 47.6 °F 45.7 °F 29.76 in Calm     93% 0.00 in
01:02 47.6 °F 46.0 °F 29.76 in Calm     94% 0.00 in
01:07 47.6 °F 46.0 °F 29.76 in Calm     94% 0.00 in
01:12 47.6 °F 46.0 °F 29.76 in Calm     94% 0.00 in
01:17 47.6 °F 46.0 °F 29.76 in Calm     94% 0.00 in
01:22 47.7 °F 46.1 °F 29.76 in Calm     94% 0.00 in
01:27 47.7 °F 46.1 °F 29.76 in Calm     94% 0.00 in
01:32 47.7 °F 46.1 °F 29.76 in Calm     94% 0.00 in
01:37 47.7 °F 46.3 °F 29.76 in Calm     95% 0.00 in
01:42 47.7 °F 46.3 °F 29.76 in Calm     95% 0.00 in
01:47 47.7 °F 46.3 °F 29.77 in Calm     95% 0.00 in
01:52 47.7 °F 46.3 °F 29.77 in Calm     95% 0.00 in
01:57 47.7 °F 46.3 °F 29.77 in SE 0.1 mph 1.2 mph 95% 0.00 in
02:02 47.7 °F 46.3 °F 29.77 in Calm     95% 0.00 in
02:07 47.7 °F 46.3 °F 29.77 in Calm     95% 0.00 in
02:12 47.9 °F 46.8 °F 29.77 in Calm     96% 0.00 in
02:17 47.9 °F 46.8 °F 29.76 in Calm   1.2 mph 96% 0.00 in
02:22 47.9 °F 46.8 °F 29.76 in Calm     96% 0.00 in
02:27 47.9 °F 46.8 °F 29.76 in Calm     96% 0.00 in
02:32 47.9 °F 46.8 °F 29.76 in Calm     96% 0.00 in
02:37 47.9 °F 46.8 °F 29.76 in Calm     96% 0.00 in
02:42 47.9 °F 46.8 °F 29.76 in Calm     96% 0.00 in
02:47 48.0 °F 46.9 °F 29.76 in Calm   1.2 mph 96% 0.00 in
02:52 48.0 °F 46.9 °F 29.76 in Calm     96% 0.00 in
02:57 48.0 °F 46.9 °F 29.76 in Calm     96% 0.00 in
03:02 48.0 °F 46.9 °F 29.76 in Calm     96% 0.00 in
03:07 48.2 °F 47.1 °F 29.76 in Calm   1.2 mph 96% 0.00 in
03:12 48.0 °F 46.9 °F 29.76 in Calm     96% 0.00 in
03:17 48.0 °F 46.9 °F 29.76 in Calm     96% 0.00 in
03:22 48.0 °F 46.9 °F 29.76 in Calm     96% 0.00 in
03:27 48.0 °F 46.9 °F 29.76 in Calm     96% 0.00 in
03:32 48.0 °F 46.9 °F 29.76 in WSW 0.1 mph 2.4 mph 96% 0.00 in
03:37 48.0 °F 46.9 °F 29.76 in Calm     96% 0.00 in
03:42 48.2 °F 47.4 °F 29.76 in Calm     97% 0.00 in
03:47 48.2 °F 47.1 °F 29.76 in Calm   1.2 mph 96% 0.00 in
03:52 48.2 °F 47.4 °F 29.76 in Calm     97% 0.00 in
03:57 48.2 °F 47.4 °F 29.76 in Calm     97% 0.00 in
04:02 48.3 °F 47.5 °F 29.76 in Calm     97% 0.00 in
04:07 48.3 °F 47.5 °F 29.76 in Calm     97% 0.00 in
04:12 48.3 °F 47.5 °F 29.76 in Calm     97% 0.00 in
04:17 48.3 °F 47.5 °F 29.76 in Calm     97% 0.00 in
04:22 48.3 °F 47.5 °F 29.76 in Calm     97% 0.00 in
04:27 48.3 °F 47.5 °F 29.76 in Calm     97% 0.00 in
04:32 48.3 °F 47.5 °F 29.77 in Calm     97% 0.00 in
04:37 48.3 °F 47.5 °F 29.77 in Calm     97% 0.00 in
04:42 48.5 °F 47.7 °F 29.77 in Calm     97% 0.00 in
04:47 48.5 °F 47.7 °F 29.77 in Calm   1.2 mph 97% 0.00 in
04:52 48.3 °F 47.5 °F 29.77 in Calm     97% 0.00 in
04:57 48.5 °F 47.7 °F 29.77 in Calm     97% 0.00 in
05:02 48.5 °F 47.7 °F 29.77 in Calm     97% 0.00 in
05:07 48.5 °F 47.7 °F 29.77 in Calm     97% 0.00 in
05:12 48.5 °F 47.7 °F 29.77 in Calm     97% 0.00 in
05:17 48.5 °F 47.7 °F 29.77 in Calm     97% 0.00 in
05:22 48.5 °F 47.7 °F 29.77 in SW 0.1 mph 1.2 mph 97% 0.00 in
05:27 48.5 °F 47.7 °F 29.77 in Calm     97% 0.00 in
05:32 48.5 °F 47.7 °F 29.77 in Calm     97% 0.00 in
05:37 48.5 °F 47.7 °F 29.77 in Calm     97% 0.00 in
05:42 48.5 °F 47.7 °F 29.77 in Calm     97% 0.00 in
05:47 48.5 °F 47.7 °F 29.77 in Calm     97% 0.00 in
05:52 48.5 °F 47.7 °F 29.77 in Calm     97% 0.00 in
05:57 48.6 °F 47.8 °F 29.77 in Calm     97% 0.00 in
06:02 48.6 °F 47.8 °F 29.78 in Calm     97% 0.00 in
06:07 48.6 °F 47.8 °F 29.78 in Calm     97% 0.00 in
06:12 48.6 °F 47.8 °F 29.78 in Calm     97% 0.00 in
06:17 48.6 °F 47.8 °F 29.78 in Calm     97% 0.00 in
06:22 48.6 °F 47.8 °F 29.78 in Calm     97% 0.00 in
06:27 48.6 °F 47.8 °F 29.78 in Calm     97% 0.00 in
06:32 48.6 °F 47.8 °F 29.79 in Calm     97% 0.00 in
06:37 48.6 °F 47.8 °F 29.79 in Calm     97% 0.00 in
06:42 48.6 °F 47.8 °F 29.79 in SW 0.6 mph 2.3 mph 97% 0.00 in
06:47 48.6 °F 47.8 °F 29.79 in SSW 0.2 mph 1.2 mph 97% 0.00 in
06:52 48.5 °F 47.7 °F 29.79 in West 0.1 mph 2.3 mph 97% 0.00 in
06:57 48.6 °F 47.8 °F 29.79 in Calm   1.2 mph 97% 0.00 in
07:02 48.6 °F 47.8 °F 29.79 in Calm     97% 0.00 in
07:07 48.6 °F 47.8 °F 29.79 in WSW 0.2 mph 1.2 mph 97% 0.00 in
07:12 48.6 °F 47.8 °F 29.79 in Calm     97% 0.00 in
07:17 48.6 °F 47.8 °F 29.79 in Calm   1.2 mph 97% 0.00 in
07:22 48.6 °F 47.8 °F 29.79 in WSW 1.3 mph 3.5 mph 97% 0.00 in
07:27 48.6 °F 47.8 °F 29.79 in Calm     97% 0.00 in
07:32 48.6 °F 47.8 °F 29.80 in Calm     97% 0.00 in
07:37 48.6 °F 47.8 °F 29.80 in Calm     97% 0.00 in
07:42 48.6 °F 47.8 °F 29.80 in Calm   1.2 mph 97% 0.00 in
07:47 48.6 °F 47.8 °F 29.80 in WSW 0.1 mph 2.3 mph 97% 0.00 in
07:52 48.6 °F 47.8 °F 29.80 in WNW 0.3 mph 2.3 mph 97% 0.00 in
07:57 48.6 °F 47.8 °F 29.80 in WSW 0.5 mph 2.3 mph 97% 0.00 in
08:02 48.5 °F 47.7 °F 29.81 in SW 3.7 mph 4.8 mph 97% 0.00 in
08:07 48.5 °F 47.7 °F 29.81 in NW 3.1 mph 7.2 mph 97% 0.00 in
08:12 48.5 °F 47.7 °F 29.81 in NNW 1.1 mph 6.9 mph 97% 0.00 in
08:17 48.6 °F 47.8 °F 29.81 in NW 0.1 mph 2.3 mph 97% 0.00 in
08:22 48.5 °F 47.4 °F 29.81 in NW 3.2 mph 8.1 mph 96% 0.00 in
08:27 48.5 °F 47.4 °F 29.81 in West 3.6 mph 12.0 mph 96% 0.00 in
08:32 48.3 °F 47.2 °F 29.82 in West 2.1 mph 3.5 mph 96% 0.00 in
08:37 48.5 °F 47.4 °F 29.82 in WNW 0.7 mph 4.8 mph 96% 0.00 in
08:42 48.3 °F 47.2 °F 29.82 in WSW 3.2 mph 4.6 mph 96% 0.00 in
08:47 48.3 °F 47.2 °F 29.82 in WNW 4.2 mph 10.4 mph 96% 0.00 in
08:52 48.2 °F 46.8 °F 29.82 in WNW 2.6 mph 8.1 mph 95% 0.00 in
08:57 48.3 °F 47.2 °F 29.82 in WNW 2.2 mph 3.5 mph 96% 0.00 in
09:02 48.3 °F 46.9 °F 29.82 in WNW 1.4 mph 6.0 mph 95% 0.00 in
09:07 48.3 °F 46.9 °F 29.82 in NW 3.9 mph 8.4 mph 95% 0.00 in
09:12 48.3 °F 46.9 °F 29.82 in SW 1.8 mph 4.6 mph 95% 0.00 in
09:17 48.3 °F 46.9 °F 29.83 in NW 1.5 mph 4.6 mph 95% 0.00 in
09:22 48.3 °F 46.9 °F 29.83 in West 2.0 mph 6.9 mph 95% 0.00 in
09:27 48.3 °F 46.9 °F 29.83 in WSW 1.3 mph 4.8 mph 95% 0.00 in
09:32 48.3 °F 46.9 °F 29.83 in WNW 0.4 mph 3.5 mph 95% 0.00 in
09:37 48.2 °F 46.8 °F 29.83 in Calm     95% 0.00 in
09:42 48.3 °F 46.9 °F 29.83 in Calm     95% 0.00 in
09:47 48.2 °F 46.8 °F 29.84 in WNW 1.6 mph 4.6 mph 95% 0.00 in
09:52 48.3 °F 46.9 °F 29.84 in Calm     95% 0.00 in
09:57 48.3 °F 46.9 °F 29.84 in SW 2.5 mph 5.8 mph 95% 0.00 in
10:02 48.5 °F 47.1 °F 29.85 in Calm     95% 0.00 in
10:07 48.6 °F 47.2 °F 29.85 in SW 0.6 mph 6.0 mph 95% 0.00 in
10:12 48.5 °F 46.9 °F 29.85 in NW 1.4 mph 4.6 mph 94% 0.00 in
10:17 48.3 °F 46.7 °F 29.85 in WNW 2.8 mph 6.9 mph 94% 0.00 in
10:22 48.5 °F 46.9 °F 29.85 in WNW 0.2 mph 5.8 mph 94% 0.00 in
10:27 48.5 °F 46.6 °F 29.85 in WSW 1.4 mph 5.8 mph 93% 0.00 in
10:32 48.5 °F 46.6 °F 29.86 in Calm     93% 0.00 in
10:37 48.5 °F 46.6 °F 29.86 in WSW 2.9 mph 4.6 mph 93% 0.00 in
10:42 48.5 °F 46.6 °F 29.86 in Calm   4.6 mph 93% 0.00 in
10:47 48.3 °F 46.4 °F 29.87 in SW 0.1 mph 6.9 mph 93% 0.00 in
10:52 48.3 °F 46.4 °F 29.87 in WNW 3.7 mph 3.7 mph 93% 0.00 in
10:57 48.3 °F 46.4 °F 29.87 in Calm     93% 0.00 in
11:02 48.3 °F 46.4 °F 29.87 in Calm     93% 0.00 in
11:07 48.5 °F 46.9 °F 29.87 in Calm     94% 0.00 in
11:12 48.5 °F 46.9 °F 29.87 in Calm     94% 0.00 in
11:17 48.6 °F 47.0 °F 29.87 in Calm     94% 0.00 in
11:22 48.6 °F 46.7 °F 29.87 in Calm     93% 0.00 in
11:27 48.5 °F 46.6 °F 29.87 in NW 4.4 mph 8.1 mph 93% 0.00 in
11:32 48.5 °F 46.6 °F 29.87 in NW 1.3 mph 1.3 mph 93% 0.00 in
11:37 48.3 °F 46.4 °F 29.87 in NW 1.1 mph 4.6 mph 93% 0.00 in
11:42 48.3 °F 46.4 °F 29.87 in Calm   2.4 mph 93% 0.00 in
11:47 48.3 °F 46.4 °F 29.87 in NW 0.9 mph 2.3 mph 93% 0.00 in
11:52 48.5 °F 46.6 °F 29.87 in WNW 0.5 mph 2.3 mph 93% 0.00 in
11:57 48.6 °F 46.7 °F 29.87 in Calm   1.2 mph 93% 0.00 in
12:02 48.8 °F 46.9 °F 29.87 in WNW 0.5 mph 1.2 mph 93% 0.00 in
12:07 48.9 °F 46.7 °F 29.87 in NW 4.3 mph 6.0 mph 92% 0.00 in
12:12 49.1 °F 46.6 °F 29.87 in NW 3.1 mph 5.8 mph 91% 0.00 in
12:17 49.1 °F 46.3 °F 29.87 in NW 2.1 mph 8.1 mph 90% 0.00 in
12:22 49.2 °F 46.4 °F 29.87 in West 0.3 mph 2.3 mph 90% 0.00 in
12:27 49.4 °F 46.6 °F 29.87 in NW 2.3 mph 6.9 mph 90% 0.00 in
12:32 49.1 °F 46.3 °F 29.87 in NW 1.6 mph 9.2 mph 90% 0.00 in
12:37 49.1 °F 46.6 °F 29.87 in SW 0.2 mph 3.6 mph 91% 0.00 in
12:42 49.1 °F 46.6 °F 29.87 in Calm     91% 0.00 in
12:47 49.4 °F 46.9 °F 29.87 in NW 1.0 mph 4.6 mph 91% 0.00 in
12:52 49.5 °F 46.7 °F 29.87 in Calm     90% 0.00 in
12:57 49.5 °F 46.4 °F 29.87 in West 0.2 mph 1.2 mph 89% 0.00 in
13:02 49.6 °F 46.5 °F 29.87 in North 0.3 mph 2.3 mph 89% 0.00 in
13:07 49.6 °F 46.2 °F 29.87 in NW 2.3 mph 5.8 mph 88% 0.00 in
13:12 49.5 °F 45.5 °F 29.87 in WNW 0.6 mph 4.8 mph 86% 0.00 in
13:17 49.6 °F 45.6 °F 29.87 in WNW 0.2 mph 2.4 mph 86% 0.00 in
13:22 49.8 °F 45.5 °F 29.87 in Calm     85% 0.00 in
13:27 49.9 °F 45.6 °F 29.87 in Calm   10.0 mph 85% 0.00 in
13:32 49.9 °F 45.6 °F 29.87 in West 0.3 mph 5.8 mph 85% 0.00 in
13:37 49.8 °F 45.8 °F 29.87 in WNW 2.0 mph 6.0 mph 86% 0.00 in
13:42 49.5 °F 45.5 °F 29.87 in WNW 3.8 mph 8.4 mph 86% 0.00 in
13:47 49.4 °F 45.4 °F 29.87 in WNW 1.9 mph 4.8 mph 86% 0.00 in
13:52 49.4 °F 45.4 °F 29.87 in Calm     86% 0.00 in
13:57 49.4 °F 45.4 °F 29.87 in Calm   5.0 mph 86% 0.00 in
14:02 49.5 °F 45.5 °F 29.87 in WNW 0.6 mph 2.3 mph 86% 0.00 in
14:07 49.6 °F 45.6 °F 29.87 in Calm   2.0 mph 86% 0.00 in
14:12 49.6 °F 45.3 °F 29.87 in WNW 2.5 mph 4.8 mph 85% 0.00 in
14:17 49.6 °F 45.3 °F 29.88 in WNW 1.8 mph 4.8 mph 85% 0.00 in
14:22 49.6 °F 45.6 °F 29.88 in Calm     86% 0.00 in
14:27 49.6 °F 45.3 °F 29.88 in West 1.0 mph 7.0 mph 85% 0.00 in
14:32 49.4 °F 45.4 °F 29.88 in Calm   3.5 mph 86% 0.00 in
14:37 49.2 °F 45.2 °F 29.88 in Calm   6.0 mph 86% 0.00 in
14:42 49.1 °F 45.1 °F 29.88 in NNW 2.2 mph 2.3 mph 86% 0.00 in
14:47 49.1 °F 45.1 °F 29.88 in SW 0.4 mph 3.6 mph 86% 0.00 in
14:52 49.1 °F 45.1 °F 29.88 in Calm     86% 0.00 in
14:57 49.1 °F 45.1 °F 29.88 in West 1.0 mph 6.0 mph 86% 0.00 in
15:02 49.4 °F 45.4 °F 29.88 in Calm     86% 0.00 in
15:07 49.4 °F 45.1 °F 29.88 in WNW 1.0 mph 6.0 mph 85% 0.00 in
15:12 49.4 °F 45.1 °F 29.88 in Calm   2.3 mph 85% 0.00 in
15:17 49.5 °F 45.2 °F 29.88 in Calm   1.2 mph 85% 0.00 in
15:22 49.5 °F 45.2 °F 29.88 in Calm   1.2 mph 85% 0.00 in
15:27 49.5 °F 44.9 °F 29.88 in WNW 3.0 mph 10.0 mph 84% 0.00 in
15:32 49.5 °F 44.6 °F 29.88 in WNW 0.1 mph 2.3 mph 83% 0.00 in
15:37 49.6 °F 44.6 °F 29.88 in Calm   1.2 mph 83% 0.00 in
15:42 49.6 °F 44.3 °F 29.88 in Calm   4.6 mph 82% 0.00 in
15:47 49.8 °F 44.5 °F 29.89 in WSW 0.3 mph 3.6 mph 82% 0.00 in
15:52 49.8 °F 44.5 °F 29.89 in Calm   1.2 mph 82% 0.00 in
15:57 49.8 °F 44.5 °F 29.89 in Calm   1.0 mph 82% 0.00 in
16:02 49.8 °F 44.5 °F 29.89 in Calm     82% 0.00 in
16:07 49.8 °F 44.8 °F 29.89 in Calm   2.0 mph 83% 0.00 in
16:12 49.8 °F 44.8 °F 29.89 in Calm   3.5 mph 83% 0.00 in
16:17 49.8 °F 44.8 °F 29.88 in NW 1.9 mph 8.1 mph 83% 0.00 in
16:22 49.8 °F 44.8 °F 29.88 in Calm   1.2 mph 83% 0.00 in
16:27 49.8 °F 45.2 °F 29.88 in Calm     84% 0.00 in
16:32 49.8 °F 45.2 °F 29.89 in Calm     84% 0.00 in
16:37 49.6 °F 45.0 °F 29.89 in WNW 1.0 mph 5.0 mph 84% 0.00 in
16:42 49.6 °F 44.6 °F 29.89 in NW 0.1 mph 4.6 mph 83% 0.00 in
16:47 49.4 °F 44.1 °F 29.89 in Calm     82% 0.00 in
16:52 49.4 °F 44.5 °F 29.89 in Calm     83% 0.00 in
16:57 49.4 °F 44.5 °F 29.89 in Calm   1.0 mph 83% 0.00 in
17:02 49.4 °F 44.5 °F 29.89 in Calm     83% 0.00 in
17:07 49.4 °F 44.5 °F 29.89 in Calm     83% 0.00 in
17:12 49.4 °F 44.5 °F 29.89 in Calm     83% 0.00 in
17:17 49.4 °F 44.5 °F 29.89 in WNW 0.1 mph 1.2 mph 83% 0.00 in
17:22 49.4 °F 44.1 °F 29.89 in Calm     82% 0.00 in
17:27 49.4 °F 44.1 °F 29.89 in Calm   4.0 mph 82% 0.00 in
17:32 49.4 °F 44.1 °F 29.90 in Calm   1.2 mph 82% 0.00 in
17:37 49.4 °F 44.5 °F 29.90 in Calm   4.0 mph 83% 0.00 in
17:42 49.4 °F 44.5 °F 29.90 in Calm     83% 0.00 in
17:47 49.2 °F 44.3 °F 29.90 in WNW 1.4 mph 3.5 mph 83% 0.00 in
17:52 49.1 °F 44.2 °F 29.90 in West 0.2 mph 5.8 mph 83% 0.00 in
17:57 49.1 °F 44.2 °F 29.90 in Calm   7.0 mph 83% 0.00 in
18:02 48.9 °F 44.3 °F 29.90 in West 0.6 mph 1.2 mph 84% 0.00 in
18:07 48.9 °F 44.0 °F 29.90 in NW 1.1 mph 5.8 mph 83% 0.00 in
18:12 48.8 °F 44.2 °F 29.90 in NW 0.6 mph 2.3 mph 84% 0.00 in
18:17 48.8 °F 44.2 °F 29.90 in Calm     84% 0.00 in
18:22 48.8 °F 44.2 °F 29.90 in WNW 0.3 mph 1.2 mph 84% 0.00 in
18:27 48.7 °F 44.1 °F 29.90 in WNW 1.0 mph 4.0 mph 84% 0.00 in
18:32 48.6 °F 44.0 °F 29.91 in Calm     84% 0.00 in
18:37 48.6 °F 44.0 °F 29.91 in Calm   3.5 mph 84% 0.00 in
18:42 48.6 °F 44.0 °F 29.91 in Calm     84% 0.00 in
18:47 48.5 °F 43.9 °F 29.91 in Calm     84% 0.00 in
18:52 48.5 °F 43.9 °F 29.91 in Calm     84% 0.00 in
18:57 48.5 °F 43.9 °F 29.91 in Calm     84% 0.00 in
19:02 48.5 °F 43.9 °F 29.92 in West 0.5 mph 2.4 mph 84% 0.00 in
19:07 48.3 °F 43.4 °F 29.92 in NW 2.2 mph 6.0 mph 83% 0.00 in
19:12 48.3 °F 43.4 °F 29.92 in Calm   5.8 mph 83% 0.00 in
19:17 48.2 °F 43.3 °F 29.92 in Calm   7.0 mph 83% 0.00 in
19:22 48.0 °F 43.1 °F 29.92 in Calm   5.8 mph 83% 0.00 in
19:27 48.0 °F 43.1 °F 29.92 in Calm     83% 0.00 in
19:32 47.9 °F 43.0 °F 29.92 in Calm     83% 0.00 in
19:37 47.9 °F 43.0 °F 29.92 in Calm     83% 0.00 in
19:42 47.8 °F 42.9 °F 29.92 in Calm   5.0 mph 83% 0.00 in
19:47 47.7 °F 42.8 °F 29.92 in Calm   5.0 mph 83% 0.00 in
19:52 47.7 °F 42.8 °F 29.92 in NW 0.6 mph 3.5 mph 83% 0.00 in
19:57 47.6 °F 42.4 °F 29.92 in Calm     82% 0.00 in
20:02 47.6 °F 42.4 °F 29.92 in Calm     82% 0.00 in
20:07 47.6 °F 42.4 °F 29.92 in Calm     82% 0.00 in
20:12 47.4 °F 42.2 °F 29.92 in NW 1.0 mph 4.8 mph 82% 0.00 in
20:17 47.4 °F 42.2 °F 29.93 in Calm   1.2 mph 82% 0.00 in
20:22 47.4 °F 42.2 °F 29.93 in Calm     82% 0.00 in
20:27 47.4 °F 42.5 °F 29.93 in NW 0.5 mph 3.5 mph 83% 0.00 in
Juneau County Weather
Compliments of Weather Underground